createdAt,value
2023-01-26T02:51:27.473Z,25.27
2023-01-26T02:53:37.758Z,28.67
2023-01-26T02:56:29.229Z,32.50
2023-01-26T02:59:04.563Z,28.02
2023-01-26T03:01:42.459Z,27.52
2023-01-26T03:04:12.442Z,27.02
2023-01-26T03:06:42.279Z,32.83
2023-01-26T03:09:13.770Z,27.10
2023-01-26T03:11:52.635Z,29.13
2023-01-26T03:14:49.779Z,27.02
2023-01-26T03:17:20.673Z,29.88
2023-01-26T03:20:11.709Z,26.13
2023-01-26T03:26:22.220Z,27.90
2023-01-26T03:28:56.571Z,29.05
2023-01-26T03:31:24.017Z,30.08
2023-01-26T03:33:51.818Z,30.48
2023-01-26T03:37:09.563Z,30.63
2023-01-26T03:39:51.389Z,27.67
2023-01-26T03:45:53.540Z,30.73
2023-01-26T03:48:41.519Z,27.55
2023-01-26T03:52:02.859Z,29.30
2023-01-26T03:54:53.811Z,28.17
2023-01-26T03:57:34.473Z,28.98
2023-01-26T04:00:12.380Z,29.15
2023-01-26T04:03:19.799Z,27.60
2023-01-26T04:06:16.876Z,30.17
2023-01-26T04:12:24.253Z,29.30
2023-01-26T04:18:43.747Z,27.98
2023-01-26T04:21:29.334Z,27.77
2023-01-26T04:23:58.136Z,28.52
2023-01-26T04:26:26.761Z,27.70
2023-01-26T04:28:54.115Z,30.10
2023-01-26T04:31:21.587Z,28.40
2023-01-26T04:33:48.735Z,28.13
2023-01-26T04:36:15.942Z,29.23
2023-01-26T04:38:43.257Z,29.95
2023-01-26T04:55:46.064Z,26.75
2023-01-26T05:02:34.671Z,28.88
2023-01-26T05:18:45.079Z,26.92
2023-01-26T05:21:11.426Z,24.13
2023-01-26T05:23:38.728Z,31.10
2023-01-26T05:26:05.999Z,27.75
2023-01-26T05:28:34.690Z,27.52
2023-01-26T05:31:01.789Z,27.88
2023-01-26T05:33:29.052Z,29.77
2023-01-26T05:35:56.509Z,26.50
2023-01-26T05:38:23.799Z,27.20
2023-01-26T05:40:51.096Z,25.05
2023-01-26T05:43:18.182Z,25.15
2023-01-26T05:45:45.321Z,28.42
2023-01-26T05:48:12.541Z,27.83
2023-01-26T05:50:39.736Z,28.85
2023-01-26T05:53:06.911Z,32.92
2023-01-26T05:55:34.250Z,28.08
2023-01-26T05:58:01.395Z,29.55
2023-01-26T06:00:28.617Z,27.48
2023-01-26T06:02:55.843Z,28.88
2023-01-26T06:05:23.027Z,32.67
2023-01-26T06:07:50.167Z,27.65
2023-01-26T06:10:17.535Z,26.58
2023-01-26T06:12:44.625Z,27.10
2023-01-26T13:42:17.405Z,25.83
2023-01-26T13:44:48.126Z,34.92
2023-01-26T13:49:43.412Z,29.70
2023-01-26T13:52:21.420Z,31.63
2023-01-26T13:54:49.124Z,29.80
2023-01-26T13:57:23.704Z,26.70
2023-01-26T13:59:55.153Z,30.45
2023-01-26T14:02:35.516Z,27.17
2023-01-26T14:05:03.670Z,29.67
2023-01-26T14:07:33.718Z,35.35
2023-01-26T14:10:02.304Z,33.15
2023-01-26T14:12:35.890Z,28.88
2023-01-26T14:15:05.259Z,31.70
2023-01-26T14:17:39.164Z,31.13
2023-01-26T14:20:18.908Z,27.77
2023-01-26T14:22:48.562Z,30.70
2023-01-26T14:25:20.692Z,32.97
2023-01-26T14:27:47.880Z,28.83
2023-01-26T14:30:29.875Z,28.42
2023-01-26T14:33:03.707Z,28.27
2023-01-26T14:35:31.166Z,33.08
2023-01-26T14:38:13.729Z,26.73
2023-01-26T14:40:48.267Z,30.85
2023-01-26T14:43:15.751Z,27.67
2023-01-26T14:46:04.254Z,26.70
2023-01-26T14:48:38.312Z,24.63
2023-01-26T14:51:08.289Z,26.45
2023-01-26T14:53:35.845Z,34.70
2023-01-26T14:56:03.062Z,26.38
2023-01-26T14:58:34.337Z,29.23
2023-01-26T15:01:03.697Z,28.27
2023-01-26T15:03:36.339Z,29.48
2023-01-26T15:06:08.469Z,28.23
2023-01-26T15:08:36.308Z,29.40
2023-01-26T15:11:23.229Z,31.95
2023-01-26T15:13:54.078Z,32.88
2023-01-26T15:16:23.035Z,34.05
2023-01-26T15:19:07.986Z,35.25
2023-01-26T15:21:39.941Z,40.45
2023-01-26T15:24:12.071Z,35.58
2023-01-26T15:26:39.280Z,41.72
2023-01-26T15:29:07.677Z,44.92
2023-01-26T15:31:38.884Z,42.45
2023-01-26T15:34:06.666Z,34.50
2023-01-26T15:36:35.681Z,35.95
2023-01-26T15:54:10.857Z,32.63
2023-01-26T15:56:37.974Z,34.10
2023-01-26T15:59:05.194Z,47.90
2023-01-26T16:01:32.457Z,39.20
2023-01-26T16:04:02.918Z,36.92
2023-01-26T16:06:31.856Z,37.90
2023-01-26T16:08:59.929Z,33.97
2023-01-26T16:11:29.420Z,33.80
2023-01-26T16:14:03.275Z,43.70
2023-01-26T16:16:31.672Z,42.65
2023-01-26T16:18:59.020Z,46.60
2023-01-26T16:21:28.890Z,43.90
2023-01-26T16:23:56.663Z,42.30
2023-01-26T16:26:24.157Z,43.15
2023-01-26T16:28:52.667Z,52.40
2023-01-26T16:32:07.490Z,46.95
2023-01-26T16:45:03.150Z,40.28
2023-01-26T16:54:36.587Z,46.67
2023-01-26T17:00:39.019Z,44.65
2023-01-26T17:03:35.988Z,42.67
2023-01-26T17:12:08.073Z,42.38
2023-01-26T17:14:55.655Z,39.30
2023-01-26T17:17:59.699Z,37.17
2023-01-26T17:20:41.336Z,37.42
2023-01-26T17:23:26.171Z,33.75
2023-01-26T17:26:16.664Z,34.45
2023-01-26T17:29:19.951Z,40.70
2023-01-26T17:31:52.516Z,37.80
2023-01-26T17:38:02.462Z,39.25
2023-01-26T17:43:44.411Z,40.55
2023-01-26T17:46:57.085Z,40.47
2023-01-26T17:52:45.974Z,32.58
2023-01-26T17:56:17.731Z,32.05
2023-01-26T17:59:02.133Z,29.40
2023-01-26T18:01:50.793Z,33.75
2023-01-26T18:05:03.187Z,33.20
2023-01-26T18:10:47.263Z,33.13
2023-01-26T18:16:36.960Z,37.45
2023-01-26T18:22:34.886Z,34.42
2023-01-26T18:25:19.992Z,33.45
2023-01-26T18:28:32.128Z,34.67
2023-01-26T18:31:12.763Z,39.70
2023-01-26T18:37:07.052Z,37.80
2023-01-26T18:40:24.740Z,77.75
2023-01-26T18:46:15.147Z,83.90
2023-01-26T18:54:54.839Z,69.70
2023-01-26T18:57:54.196Z,60.72
2023-01-26T19:00:56.294Z,64.97
2023-01-26T19:07:04.770Z,53.38
2023-01-26T19:09:35.916Z,56.97
2023-01-26T19:12:04.133Z,55.03
2023-01-26T19:14:32.439Z,62.50
2023-01-26T19:17:00.019Z,54.10
2023-01-26T19:19:42.490Z,59.20
2023-01-26T19:25:26.855Z,55.25
2023-01-26T19:27:55.494Z,60.25
2023-01-26T19:30:22.682Z,58.20
2023-01-26T19:33:12.253Z,53.13
2023-01-26T19:35:40.159Z,54.70
2023-01-26T19:38:09.416Z,56.55
2023-01-26T19:40:37.589Z,57.03
2023-01-26T19:43:09.964Z,53.72
2023-01-26T19:45:46.919Z,55.00
2023-01-26T19:48:27.180Z,56.00
2023-01-26T19:51:18.815Z,53.40
2023-01-26T19:53:48.989Z,78.25
2023-01-26T19:56:21.280Z,65.10
2023-01-26T19:58:55.384Z,57.05
2023-01-26T20:01:31.405Z,57.33
2023-01-26T20:04:14.491Z,54.38
2023-01-26T20:06:57.735Z,58.75
2023-01-26T21:06:43.271Z,77.80
2023-01-26T21:09:47.658Z,81.65
2023-01-26T21:12:17.649Z,76.03
2023-01-26T21:14:54.267Z,79.28
2023-01-26T21:17:22.958Z,78.88
2023-01-26T21:19:56.256Z,72.43
2023-01-26T21:22:24.677Z,70.72
2023-01-26T21:24:52.248Z,69.72
2023-01-26T21:27:19.555Z,70.28
2023-01-26T21:29:48.252Z,63.22
2023-01-26T21:32:18.361Z,73.35
2023-01-26T21:34:47.473Z,72.18
2023-01-26T21:37:17.272Z,69.63
2023-01-26T21:39:44.584Z,74.90
2023-01-26T21:42:11.841Z,93.18
2023-01-26T21:45:00.449Z,80.65
2023-01-26T21:47:28.812Z,76.43
2023-01-26T21:50:01.686Z,69.53
2023-01-26T21:52:47.537Z,76.25
2023-01-26T21:55:15.177Z,65.90
2023-01-26T21:58:05.795Z,77.45
2023-01-26T22:00:33.414Z,67.55
2023-01-26T22:03:24.878Z,58.40
2023-01-26T22:05:59.925Z,82.05
2023-01-26T22:08:38.875Z,64.72
2023-01-26T22:11:14.755Z,81.00
2023-01-26T22:13:43.166Z,66.88
2023-01-26T22:16:13.638Z,76.00
2023-01-26T22:18:47.178Z,76.82
2023-01-26T22:21:17.303Z,79.25
2023-01-26T22:23:46.524Z,90.25
2023-01-26T22:26:15.750Z,102.10
2023-01-26T22:28:50.217Z,81.72
2023-01-26T22:31:19.941Z,61.45
2023-01-26T22:33:49.882Z,63.60
2023-01-26T22:36:19.170Z,60.25
2023-01-26T22:38:49.897Z,77.32
2023-01-26T22:43:54.558Z,87.03
2023-01-26T22:46:22.740Z,84.68
2023-01-26T22:48:52.342Z,67.18
2023-01-26T22:51:22.331Z,75.60
2023-01-26T22:53:53.736Z,71.00
2023-01-26T22:56:22.188Z,86.10
2023-01-26T22:58:59.657Z,79.00
2023-01-26T23:01:31.238Z,67.38
2023-01-26T23:03:58.769Z,65.07
2023-01-26T23:06:26.669Z,123.72
2023-01-26T23:08:54.729Z,100.60
2023-01-26T23:11:24.320Z,92.65
2023-01-26T23:14:42.813Z,81.53
2023-01-26T23:17:17.891Z,71.32
2023-01-26T23:19:46.237Z,69.35
2023-01-26T23:22:13.716Z,61.88
2023-01-26T23:25:03.292Z,62.95
2023-01-26T23:27:31.855Z,61.05
2023-01-26T23:30:01.281Z,63.72
2023-01-26T23:32:32.437Z,56.55
2023-01-26T23:35:01.274Z,54.80
2023-01-26T23:37:28.506Z,56.33
2023-01-26T23:39:55.992Z,58.33
2023-01-26T23:42:23.421Z,56.63
2023-01-26T23:44:53.360Z,64.22
2023-01-26T23:47:22.722Z,60.85
2023-01-26T23:49:50.004Z,64.43
2023-01-26T23:52:17.320Z,64.60
2023-01-26T23:54:46.526Z,61.60
2023-01-26T23:57:13.965Z,54.55
2023-01-26T23:59:41.605Z,56.28
